Terminal Aerodrome Forecast
Issued by NWS Jackson, MS

Home | Current Version | Previous Version | Text Only | Print | Product List | Glossary On
Versions: 1 2 3 4 5 6 7 8 9 10 11 12 13 14
000
FTUS44 KJAN 241428 AAB
TAFHBG
TAF AMD
KHBG 241428Z 2414/2512 15004KT P6SM SCT008 BKN035
     FM241700 17011G20KT P6SM VCSH BKN025
     FM241900 18015G25KT P6SM VCSH BKN035
     FM250900 20012KT 5SM TSRA BKN025 OVC035CB=

USA.gov is the U.S. government's official web portal to all federal, state and local government web resources and services.